createdAt,value
2018-12-18T00:01:06.210Z,6.35
2018-12-18T00:03:39.285Z,5.65
2018-12-18T00:06:04.252Z,6.12
2018-12-18T00:08:32.117Z,5.80
2018-12-18T00:11:02.850Z,5.80
2018-12-18T00:13:30.789Z,5.60
2018-12-18T00:15:58.703Z,6.33
2018-12-18T00:18:26.572Z,6.15
2018-12-18T00:20:54.482Z,6.00
2018-12-18T00:23:22.419Z,5.12
2018-12-18T00:25:50.315Z,4.90
2018-12-18T00:28:18.120Z,4.65
2018-12-18T00:30:46.047Z,5.00
2018-12-18T00:33:13.868Z,4.83
2018-12-18T00:35:41.880Z,4.83
2018-12-18T00:38:09.722Z,4.50
2018-12-18T00:40:37.564Z,4.20
2018-12-18T00:43:05.495Z,4.55
2018-12-18T00:45:33.496Z,4.60
2018-12-18T00:48:01.315Z,4.60
2018-12-18T00:50:29.421Z,4.92
2018-12-18T00:52:57.388Z,5.00
2018-12-18T00:55:25.328Z,4.90
2018-12-18T00:57:53.234Z,5.35
2018-12-18T01:00:21.075Z,4.85
2018-12-18T01:02:48.956Z,4.70
2018-12-18T01:05:16.936Z,4.53
2018-12-18T01:07:44.968Z,4.65
2018-12-18T01:10:12.827Z,4.62
2018-12-18T01:12:40.981Z,4.05
2018-12-18T01:15:09.047Z,4.72
2018-12-18T01:17:36.949Z,4.72
2018-12-18T01:20:05.127Z,4.15
2018-12-18T01:22:33.045Z,4.78
2018-12-18T01:25:00.868Z,4.10
2018-12-18T01:27:28.717Z,3.80
2018-12-18T01:29:56.629Z,3.95
2018-12-18T01:32:24.340Z,4.10
2018-12-18T01:34:52.219Z,4.33
2018-12-18T01:37:20.144Z,3.92
2018-12-18T01:39:48.047Z,4.55
2018-12-18T01:42:15.961Z,4.95
2018-12-18T01:44:43.911Z,6.05
2018-12-18T01:47:11.767Z,6.25
2018-12-18T01:49:39.664Z,5.60
2018-12-18T01:52:07.489Z,5.53
2018-12-18T01:54:35.395Z,5.17
2018-12-18T01:57:03.211Z,4.70
2018-12-18T01:59:31.092Z,5.20
2018-12-18T02:01:58.872Z,4.78
2018-12-18T02:04:26.719Z,5.42
2018-12-18T02:06:54.514Z,5.12
2018-12-18T02:09:22.367Z,5.20
2018-12-18T02:11:50.267Z,5.10
2018-12-18T02:14:18.151Z,4.60
2018-12-18T02:16:46.045Z,4.15
2018-12-18T02:19:14.075Z,4.50
2018-12-18T02:21:41.956Z,4.90
2018-12-18T02:24:09.884Z,4.20
2018-12-18T02:26:37.761Z,4.15
2018-12-18T02:29:05.581Z,4.20
2018-12-18T02:31:33.588Z,4.47
2018-12-18T02:34:01.420Z,4.90
2018-12-18T02:36:29.330Z,4.67
2018-12-18T02:38:57.255Z,5.42
2018-12-18T02:41:25.159Z,5.40
2018-12-18T02:43:53.017Z,5.58
2018-12-18T02:46:21.004Z,5.40
2018-12-18T02:48:48.904Z,5.15
2018-12-18T02:51:16.792Z,6.28
2018-12-18T02:53:44.523Z,6.12
2018-12-18T02:56:12.472Z,6.78
2018-12-18T02:58:40.335Z,6.30
2018-12-18T03:01:08.205Z,6.00
2018-12-18T03:03:36.394Z,5.85
2018-12-18T03:06:04.240Z,6.28
2018-12-18T03:08:32.131Z,5.90
2018-12-18T03:10:59.951Z,6.90
2018-12-18T03:13:28.433Z,6.80
2018-12-18T03:15:56.371Z,6.17
2018-12-18T03:18:24.389Z,6.08
2018-12-18T03:20:52.245Z,6.47
2018-12-18T03:23:20.144Z,6.50
2018-12-18T03:25:48.072Z,6.95
2018-12-18T03:28:15.971Z,5.33
2018-12-18T03:30:43.779Z,6.40
2018-12-18T03:33:12.025Z,6.80
2018-12-18T03:35:39.840Z,6.20
2018-12-18T03:38:07.661Z,7.00
2018-12-18T03:40:35.617Z,7.05
2018-12-18T03:43:03.571Z,7.05
2018-12-18T03:45:31.572Z,6.17
2018-12-18T03:47:59.425Z,6.47
2018-12-18T03:50:27.302Z,7.05
2018-12-18T03:52:55.127Z,6.28
2018-12-18T03:55:23.019Z,6.90
2018-12-18T03:57:50.832Z,7.37
2018-12-18T04:00:18.727Z,6.92
2018-12-18T04:02:46.544Z,6.55
2018-12-18T04:05:14.428Z,7.28
2018-12-18T04:07:42.345Z,7.05
2018-12-18T04:10:10.265Z,6.60
2018-12-18T04:12:38.272Z,6.83
2018-12-18T04:15:06.309Z,6.08
2018-12-18T04:17:34.267Z,6.80
2018-12-18T04:20:02.725Z,6.95
2018-12-18T04:22:30.736Z,6.45
2018-12-18T04:24:58.653Z,6.70
2018-12-18T04:27:26.466Z,6.08
2018-12-18T04:29:54.378Z,6.62
2018-12-18T04:32:22.242Z,6.58
2018-12-18T04:34:50.146Z,7.15
2018-12-18T04:37:17.963Z,7.35
2018-12-18T04:39:45.866Z,9.10
2018-12-18T04:42:13.765Z,6.30
2018-12-18T04:44:41.866Z,6.30
2018-12-18T04:47:09.863Z,6.70
2018-12-18T04:49:37.765Z,6.83
2018-12-18T04:52:05.576Z,7.05
2018-12-18T04:54:33.544Z,6.25
2018-12-18T04:57:01.450Z,6.62
2018-12-18T04:59:29.358Z,6.10
2018-12-18T05:01:57.519Z,6.78
2018-12-18T05:04:25.611Z,6.20
2018-12-18T05:06:53.535Z,5.50
2018-12-18T05:09:21.744Z,6.28
2018-12-18T05:11:49.623Z,5.92
2018-12-18T05:14:17.442Z,5.47
2018-12-18T05:16:45.405Z,6.45
2018-12-18T05:19:13.203Z,6.37
2018-12-18T05:21:41.093Z,5.75
2018-12-18T05:24:08.929Z,5.95
2018-12-18T05:26:37.028Z,6.15
2018-12-18T05:29:04.856Z,5.30
2018-12-18T05:31:32.701Z,6.05
2018-12-18T05:34:01.051Z,5.90
2018-12-18T05:36:28.935Z,7.42
2018-12-18T05:38:56.959Z,6.58
2018-12-18T05:41:24.793Z,7.22
2018-12-18T05:43:52.679Z,6.85
2018-12-18T05:46:20.661Z,7.15
2018-12-18T05:48:48.673Z,7.53
2018-12-18T05:51:16.741Z,7.78
2018-12-18T05:53:44.643Z,7.53
2018-12-18T05:56:12.463Z,8.15
2018-12-18T05:58:40.393Z,7.75
2018-12-18T06:01:08.316Z,7.90
2018-12-18T06:03:36.049Z,8.00
2018-12-18T06:06:04.850Z,7.87
2018-12-18T06:08:33.023Z,8.48
2018-12-18T06:11:00.869Z,6.85
2018-12-18T06:13:28.846Z,6.78
2018-12-18T06:15:56.834Z,7.53
2018-12-18T06:18:24.690Z,7.20
2018-12-18T06:20:52.576Z,6.80
2018-12-18T06:23:20.399Z,6.40
2018-12-18T06:25:48.420Z,8.15
2018-12-18T06:28:16.335Z,7.25
2018-12-18T06:30:44.374Z,7.05
2018-12-18T06:33:12.224Z,7.28
2018-12-18T06:35:40.123Z,8.28
2018-12-18T06:38:08.040Z,7.72
2018-12-18T06:40:35.908Z,8.08
2018-12-18T06:43:03.748Z,8.55
2018-12-18T06:45:31.839Z,9.33
2018-12-18T06:47:59.572Z,9.13
2018-12-18T06:50:27.502Z,9.80
2018-12-18T06:52:55.314Z,10.03
2018-12-18T06:55:23.320Z,9.70
2018-12-18T06:57:51.166Z,10.20
2018-12-18T07:00:19.057Z,9.70
2018-12-18T07:02:46.898Z,8.43
2018-12-18T07:05:16.831Z,10.15
2018-12-18T07:07:44.708Z,10.82
2018-12-18T07:10:12.776Z,10.60
2018-12-18T07:12:40.695Z,10.40
2018-12-18T07:15:08.704Z,10.25
2018-12-18T07:17:36.671Z,9.63
2018-12-18T07:20:04.737Z,9.30
2018-12-18T07:22:32.653Z,9.85
2018-12-18T07:25:00.931Z,10.48
2018-12-18T07:27:28.893Z,10.88
2018-12-18T07:29:56.814Z,11.20
2018-12-18T07:32:24.697Z,10.20
2018-12-18T07:34:52.628Z,10.00
2018-12-18T07:37:20.533Z,9.80
2018-12-18T07:39:48.444Z,10.20
2018-12-18T07:42:16.279Z,11.80
2018-12-18T07:44:44.280Z,11.18
2018-12-18T07:47:12.095Z,12.00
2018-12-18T07:49:40.008Z,11.28
2018-12-18T07:52:07.934Z,11.00
2018-12-18T07:54:35.806Z,10.08
2018-12-18T07:57:03.723Z,9.70
2018-12-18T07:59:31.584Z,10.15
2018-12-18T08:01:59.490Z,9.85
2018-12-18T08:04:27.396Z,10.20
2018-12-18T08:06:55.297Z,10.40
2018-12-18T08:09:23.332Z,10.18
2018-12-18T08:11:51.230Z,9.78
2018-12-18T08:14:20.304Z,9.43
2018-12-18T08:16:48.151Z,10.68
2018-12-18T08:19:16.061Z,10.93
2018-12-18T08:21:43.899Z,12.00
2018-12-18T08:24:11.838Z,9.83
2018-12-18T08:26:39.657Z,9.85
2018-12-18T08:29:07.541Z,11.57
2018-12-18T08:31:35.392Z,11.45
2018-12-18T08:34:03.430Z,11.35
2018-12-18T08:36:31.249Z,10.93
2018-12-18T08:38:59.164Z,11.93
2018-12-18T08:41:26.972Z,13.25
2018-12-18T08:43:54.907Z,11.75
2018-12-18T08:46:22.916Z,12.47
2018-12-18T08:48:50.782Z,11.08
2018-12-18T08:51:18.795Z,11.95
2018-12-18T08:53:46.643Z,11.05
2018-12-18T08:56:14.605Z,11.95
2018-12-18T08:58:42.460Z,13.10
2018-12-18T09:01:10.336Z,14.60
2018-12-18T09:03:38.152Z,15.53
2018-12-18T09:06:06.098Z,14.07
2018-12-18T09:08:34.227Z,15.00
2018-12-18T09:11:02.087Z,13.28
2018-12-18T09:13:30.150Z,15.10
2018-12-18T09:15:58.116Z,14.07
2018-12-18T09:18:26.284Z,15.88
2018-12-18T09:20:54.187Z,15.50
2018-12-18T09:23:22.017Z,15.85
2018-12-18T09:25:49.952Z,16.20
2018-12-18T09:28:18.340Z,16.45
2018-12-18T09:30:46.359Z,16.27
2018-12-18T09:33:14.352Z,17.00
2018-12-18T09:35:42.350Z,16.77
2018-12-18T09:38:15.887Z,17.77
2018-12-18T09:40:51.233Z,16.20
2018-12-18T09:43:26.375Z,16.12
2018-12-18T09:45:55.854Z,16.55
2018-12-18T09:48:23.793Z,17.20
2018-12-18T09:50:51.936Z,16.10
2018-12-18T09:53:20.967Z,18.00
2018-12-18T09:55:49.868Z,18.42
2018-12-18T09:58:17.817Z,19.70
2018-12-18T10:00:45.696Z,16.40
2018-12-18T10:03:13.632Z,17.45
2018-12-18T10:05:41.535Z,18.55
2018-12-18T10:08:09.446Z,18.55
2018-12-18T10:10:37.359Z,16.17
2018-12-18T10:13:05.592Z,16.55
2018-12-18T10:15:33.411Z,17.40
2018-12-18T10:18:01.545Z,17.40
2018-12-18T10:20:29.396Z,17.37
2018-12-18T10:22:57.304Z,18.92
2018-12-18T10:25:25.170Z,17.15
2018-12-18T10:27:53.134Z,18.62
2018-12-18T10:30:20.987Z,21.97
2018-12-18T10:32:48.869Z,22.65
2018-12-18T10:35:16.824Z,19.82
2018-12-18T10:37:44.592Z,20.12
2018-12-18T10:40:12.603Z,17.23
2018-12-18T10:42:40.451Z,16.77
2018-12-18T10:45:13.842Z,16.90
2018-12-18T10:47:42.245Z,16.73
2018-12-18T10:50:10.301Z,15.05
2018-12-18T10:52:38.160Z,14.50
2018-12-18T10:55:06.592Z,13.95
2018-12-18T10:57:34.411Z,14.90
2018-12-18T11:00:03.257Z,14.95
2018-12-18T11:02:32.746Z,12.88
2018-12-18T11:05:00.977Z,14.95
2018-12-18T11:07:29.709Z,13.80
2018-12-18T11:09:57.756Z,14.28
2018-12-18T11:12:37.604Z,13.68
2018-12-18T11:15:07.060Z,13.00
2018-12-18T11:17:34.976Z,13.40
2018-12-18T11:20:03.644Z,12.50
2018-12-18T11:22:31.888Z,13.15
2018-12-18T11:24:59.831Z,12.18
2018-12-18T11:27:27.812Z,10.23
2018-12-18T11:29:55.846Z,11.30
2018-12-18T11:32:23.839Z,9.88
2018-12-18T11:34:51.655Z,11.22
2018-12-18T11:37:19.592Z,11.83
2018-12-18T11:39:47.521Z,10.32
2018-12-18T11:42:15.466Z,12.15
2018-12-18T11:44:43.401Z,11.08
2018-12-18T11:47:11.435Z,10.30
2018-12-18T11:49:39.302Z,10.58
2018-12-18T11:52:08.106Z,10.90
2018-12-18T11:54:37.057Z,10.63
2018-12-18T11:57:05.977Z,11.35
2018-12-18T11:59:33.954Z,10.30
2018-12-18T12:02:01.974Z,16.90
2018-12-18T12:04:29.809Z,10.58
2018-12-18T12:06:57.825Z,14.95
2018-12-18T12:09:25.669Z,10.75
2018-12-18T12:11:53.566Z,10.03
2018-12-18T12:14:21.501Z,8.25
2018-12-18T12:16:49.435Z,7.35
2018-12-18T12:19:17.359Z,6.60
2018-12-18T12:21:45.081Z,6.05
2018-12-18T12:24:12.927Z,6.42
2018-12-18T12:26:45.303Z,5.45
2018-12-18T12:29:14.671Z,6.03
2018-12-18T12:31:42.488Z,6.15
2018-12-18T12:34:10.501Z,6.45
2018-12-18T12:36:38.992Z,6.10
2018-12-18T12:39:08.120Z,5.83
2018-12-18T12:41:37.096Z,5.37
2018-12-18T12:44:05.454Z,5.95
2018-12-18T12:46:34.239Z,5.45
2018-12-18T12:49:08.088Z,5.20
2018-12-18T12:51:37.372Z,5.10
2018-12-18T12:54:05.438Z,4.78
2018-12-18T12:56:33.497Z,5.10
2018-12-18T12:59:02.049Z,4.28
2018-12-18T13:01:30.745Z,5.60
2018-12-18T13:03:58.645Z,5.15
2018-12-18T13:06:26.689Z,5.12
2018-12-18T13:08:56.592Z,4.50
2018-12-18T13:11:24.651Z,4.90
2018-12-18T13:13:52.503Z,5.20
2018-12-18T13:16:20.484Z,4.95
2018-12-18T13:18:48.529Z,4.85
2018-12-18T13:21:17.588Z,4.95
2018-12-18T13:23:46.125Z,5.20
2018-12-18T13:26:14.989Z,5.00
2018-12-18T13:28:42.880Z,4.75
2018-12-18T13:31:10.984Z,4.53
2018-12-18T13:33:41.012Z,4.90
2018-12-18T13:36:09.020Z,5.00
2018-12-18T13:38:37.855Z,4.45
2018-12-18T13:41:06.125Z,5.08
2018-12-18T13:43:34.174Z,4.53
2018-12-18T13:46:04.561Z,4.87
2018-12-18T13:48:32.592Z,5.28
2018-12-18T13:51:00.943Z,4.85
2018-12-18T13:53:29.070Z,4.50
2018-12-18T13:55:57.590Z,4.35
2018-12-18T13:58:26.805Z,4.60
2018-12-18T14:00:55.409Z,4.47
2018-12-18T14:03:23.349Z,4.53
2018-12-18T14:05:51.801Z,4.40
2018-12-18T14:08:19.993Z,5.10
2018-12-18T14:10:47.947Z,5.50
2018-12-18T14:13:15.914Z,5.05
2018-12-18T14:15:43.829Z,5.58
2018-12-18T14:18:11.764Z,5.70
2018-12-18T14:20:39.605Z,5.50
2018-12-18T14:23:07.567Z,4.65
2018-12-18T14:25:35.548Z,5.25
2018-12-18T14:28:03.626Z,5.40
2018-12-18T14:30:31.541Z,5.17
2018-12-18T14:32:59.512Z,4.92
2018-12-18T14:35:27.408Z,5.30
2018-12-18T14:37:55.363Z,5.15
2018-12-18T14:40:23.205Z,4.90
2018-12-18T14:42:51.080Z,5.08
2018-12-18T14:45:19.100Z,5.22
2018-12-18T14:47:46.949Z,5.03
2018-12-18T14:50:15.052Z,5.30
2018-12-18T14:52:43.029Z,5.40
2018-12-18T14:55:10.958Z,5.28
2018-12-18T14:57:38.903Z,5.00
2018-12-18T15:00:07.641Z,5.60
2018-12-18T15:02:35.608Z,5.90
2018-12-18T15:05:04.179Z,6.15
2018-12-18T15:07:32.036Z,5.47
2018-12-18T15:10:00.092Z,4.50
2018-12-18T15:12:28.292Z,5.53
2018-12-18T15:14:56.248Z,5.20
2018-12-18T15:17:24.120Z,5.30
2018-12-18T15:19:52.031Z,6.50
2018-12-18T15:22:20.009Z,6.40
2018-12-18T15:24:48.087Z,6.33
2018-12-18T15:27:15.949Z,6.62
2018-12-18T15:29:43.774Z,8.43
2018-12-18T15:32:11.973Z,6.83
2018-12-18T15:34:39.924Z,7.67
2018-12-18T15:37:09.826Z,7.00
2018-12-18T15:39:37.789Z,5.67
2018-12-18T15:42:05.705Z,5.92
2018-12-18T15:44:33.855Z,6.45
2018-12-18T15:47:02.015Z,5.92
2018-12-18T15:49:29.926Z,6.05
2018-12-18T15:51:57.861Z,7.90
2018-12-18T15:54:25.821Z,9.78
2018-12-18T15:56:53.787Z,6.97
2018-12-18T15:59:21.641Z,6.97
2018-12-18T16:01:49.616Z,6.53
2018-12-18T16:04:17.445Z,7.45
2018-12-18T16:06:45.382Z,7.03
2018-12-18T16:09:13.379Z,7.40
2018-12-18T16:11:41.309Z,7.70
2018-12-18T16:14:09.466Z,7.58
2018-12-18T16:16:37.423Z,9.38
2018-12-18T16:19:05.386Z,7.37
2018-12-18T16:21:33.350Z,6.35
2018-12-18T16:24:01.505Z,6.58
2018-12-18T16:26:29.496Z,6.70
2018-12-18T16:28:57.452Z,6.87
2018-12-18T16:31:25.428Z,7.78
2018-12-18T16:33:53.329Z,6.90
2018-12-18T16:36:21.152Z,8.15
2018-12-18T16:38:49.116Z,7.67
2018-12-18T16:41:17.022Z,7.00
2018-12-18T16:43:44.990Z,6.60
2018-12-18T16:46:13.041Z,6.60
2018-12-18T16:48:41.004Z,6.37
2018-12-18T16:51:08.942Z,8.05
2018-12-18T16:53:36.873Z,6.90
2018-12-18T16:56:04.844Z,6.30
2018-12-18T16:58:32.897Z,6.45
2018-12-18T17:01:00.915Z,6.03
2018-12-18T17:03:28.939Z,9.60
2018-12-18T17:05:56.949Z,8.23
2018-12-18T17:08:25.109Z,9.68
2018-12-18T17:10:53.070Z,8.60
2018-12-18T17:13:21.057Z,7.37
2018-12-18T17:15:49.010Z,8.03
2018-12-18T17:18:16.765Z,8.38
2018-12-18T17:20:44.744Z,7.35
2018-12-18T17:23:12.858Z,8.53
2018-12-18T17:25:40.841Z,8.40
2018-12-18T17:28:08.780Z,7.55
2018-12-18T17:30:36.904Z,8.20
2018-12-18T17:33:05.377Z,8.50
2018-12-18T17:35:33.440Z,9.45
2018-12-18T17:38:01.443Z,8.55
2018-12-18T17:40:29.930Z,8.05
2018-12-18T17:42:58.007Z,8.15
2018-12-18T17:45:25.924Z,8.40
2018-12-18T17:47:54.028Z,8.20
2018-12-18T17:50:21.924Z,8.40
2018-12-18T17:52:49.953Z,8.10
2018-12-18T17:55:17.810Z,7.85
2018-12-18T17:57:45.758Z,7.70
2018-12-18T18:00:13.693Z,7.05
2018-12-18T18:02:41.744Z,7.50
2018-12-18T18:05:09.713Z,8.10
2018-12-18T18:07:42.933Z,7.10
2018-12-18T18:10:07.872Z,7.40
2018-12-18T18:12:35.804Z,7.75
2018-12-18T18:15:04.046Z,7.53
2018-12-18T18:17:32.233Z,7.53
2018-12-18T18:20:01.046Z,7.05
2018-12-18T18:22:29.156Z,7.10
2018-12-18T18:24:57.040Z,7.40
2018-12-18T18:27:25.029Z,8.85
2018-12-18T18:29:52.773Z,10.03
2018-12-18T18:32:20.663Z,10.18
2018-12-18T18:34:48.613Z,9.08
2018-12-18T18:37:16.605Z,8.63
2018-12-18T18:39:44.440Z,8.08
2018-12-18T18:42:12.465Z,8.38
2018-12-18T18:44:40.541Z,7.03
2018-12-18T18:47:08.528Z,10.80
2018-12-18T18:49:36.529Z,11.15
2018-12-18T18:52:04.427Z,11.95
2018-12-18T18:54:32.512Z,11.00
2018-12-18T18:57:00.946Z,7.65
2018-12-18T18:59:28.901Z,9.43
2018-12-18T19:01:56.869Z,8.95
2018-12-18T19:04:24.887Z,8.75
2018-12-18T19:06:52.920Z,10.30
2018-12-18T19:09:20.926Z,8.03
2018-12-18T19:11:48.904Z,9.28
2018-12-18T19:14:17.025Z,9.85
2018-12-18T19:16:44.926Z,9.65
2018-12-18T19:19:12.807Z,9.13
2018-12-18T19:21:40.711Z,8.73
2018-12-18T19:24:08.742Z,8.85
2018-12-18T19:26:37.786Z,9.70
2018-12-18T19:29:06.090Z,9.80
2018-12-18T19:31:34.009Z,10.55
2018-12-18T19:34:01.978Z,9.60
2018-12-18T19:36:30.223Z,10.50
2018-12-18T19:38:58.261Z,10.32
2018-12-18T19:41:26.498Z,9.95
2018-12-18T19:43:54.385Z,11.05
2018-12-18T19:46:22.454Z,10.72
2018-12-18T19:48:50.367Z,10.65
2018-12-18T19:51:18.417Z,9.18
2018-12-18T19:53:46.312Z,9.33
2018-12-18T19:56:14.324Z,9.98
2018-12-18T19:58:42.237Z,9.08
2018-12-18T20:01:10.216Z,10.25
2018-12-18T20:03:38.393Z,9.55
2018-12-18T20:06:06.343Z,8.83
2018-12-18T20:08:34.261Z,9.53
2018-12-18T20:11:02.360Z,8.78
2018-12-18T20:13:30.438Z,9.03
2018-12-18T20:15:58.475Z,10.25
2018-12-18T20:18:26.444Z,10.18
2018-12-18T20:20:54.653Z,9.53
2018-12-18T20:23:22.586Z,9.78
2018-12-18T20:25:50.470Z,10.40
2018-12-18T20:28:18.417Z,10.03
2018-12-18T20:30:46.452Z,11.20
2018-12-18T20:33:14.476Z,10.30
2018-12-18T20:35:42.379Z,9.38
2018-12-18T20:38:16.629Z,11.83
2018-12-18T20:40:40.443Z,10.95
2018-12-18T20:43:08.474Z,11.50
2018-12-18T20:45:36.566Z,10.90
2018-12-18T20:48:04.445Z,10.48
2018-12-18T20:50:32.489Z,11.40
2018-12-18T20:53:00.982Z,11.88
2018-12-18T20:55:28.825Z,11.73
2018-12-18T20:57:56.976Z,11.55
2018-12-18T21:00:24.890Z,10.70
2018-12-18T21:02:52.748Z,11.95
2018-12-18T21:05:20.661Z,10.60
2018-12-18T21:07:48.596Z,12.50
2018-12-18T21:10:16.552Z,11.22
2018-12-18T21:12:44.343Z,11.33
2018-12-18T21:15:12.386Z,11.35
2018-12-18T21:17:40.332Z,12.28
2018-12-18T21:20:09.407Z,11.80
2018-12-18T21:22:37.258Z,12.33
2018-12-18T21:25:06.580Z,12.45
2018-12-18T21:27:34.473Z,12.82
2018-12-18T21:30:02.985Z,12.03
2018-12-18T21:32:32.422Z,11.12
2018-12-18T21:35:00.397Z,11.03
2018-12-18T21:37:28.510Z,11.83
2018-12-18T21:39:56.475Z,11.05
2018-12-18T21:42:24.449Z,11.40
2018-12-18T21:44:52.660Z,12.00
2018-12-18T21:47:20.629Z,10.58
2018-12-18T21:49:48.620Z,11.63
2018-12-18T21:52:16.559Z,11.25
2018-12-18T21:54:44.452Z,11.05
2018-12-18T21:57:12.419Z,10.95
2018-12-18T21:59:40.256Z,11.97
2018-12-18T22:02:08.245Z,11.40
2018-12-18T22:04:36.094Z,12.03
2018-12-18T22:07:03.995Z,12.03
2018-12-18T22:09:31.826Z,11.43
2018-12-18T22:11:59.777Z,11.88
2018-12-18T22:14:27.809Z,11.83
2018-12-18T22:16:55.691Z,12.47
2018-12-18T22:19:23.519Z,12.68
2018-12-18T22:21:51.348Z,13.32
2018-12-18T22:24:19.386Z,12.18
2018-12-18T22:26:47.287Z,12.88
2018-12-18T22:29:15.337Z,13.62
2018-12-18T22:31:43.095Z,14.20
2018-12-18T22:34:11.207Z,13.38
2018-12-18T22:36:39.058Z,15.43
2018-12-18T22:39:07.359Z,14.03
2018-12-18T22:41:35.206Z,14.40
2018-12-18T22:44:03.205Z,14.23
2018-12-18T22:46:31.045Z,13.45
2018-12-18T22:48:58.887Z,14.05
2018-12-18T22:51:26.779Z,13.65
2018-12-18T22:53:54.704Z,12.85
2018-12-18T22:56:22.633Z,12.47
2018-12-18T22:58:50.605Z,12.65
2018-12-18T23:01:24.089Z,11.88
2018-12-18T23:03:53.627Z,11.30
2018-12-18T23:06:21.592Z,11.80
2018-12-18T23:08:50.448Z,11.53
2018-12-18T23:11:18.380Z,11.65
2018-12-18T23:13:46.396Z,11.12
2018-12-18T23:16:14.242Z,11.05
2018-12-18T23:18:42.451Z,11.73
2018-12-18T23:21:10.307Z,12.30
2018-12-18T23:23:38.180Z,12.23
2018-12-18T23:26:06.075Z,11.95
2018-12-18T23:28:33.943Z,11.85
2018-12-18T23:31:02.005Z,11.65
2018-12-18T23:33:29.853Z,11.35
2018-12-18T23:35:57.748Z,11.15
2018-12-18T23:38:25.592Z,11.50
2018-12-18T23:40:53.511Z,11.65
2018-12-18T23:43:21.536Z,10.68
2018-12-18T23:45:49.555Z,11.85
2018-12-18T23:48:17.704Z,10.95
2018-12-18T23:50:45.583Z,10.20
2018-12-18T23:53:13.581Z,10.55
2018-12-18T23:55:41.408Z,10.80
2018-12-18T23:58:09.307Z,12.18
